createdAt,value
2019-03-05T00:00:06.651Z,0.80
2019-03-05T00:02:36.767Z,1.30
2019-03-05T00:05:05.626Z,0.83
2019-03-05T00:07:34.110Z,0.83
2019-03-05T00:10:02.610Z,0.90
2019-03-05T00:12:31.287Z,1.17
2019-03-05T00:14:59.779Z,1.00
2019-03-05T00:17:28.258Z,1.40
2019-03-05T00:19:56.658Z,1.27
2019-03-05T00:22:25.074Z,1.33
2019-03-05T00:25:00.643Z,1.10
2019-03-05T00:27:30.392Z,1.53
2019-03-05T00:30:13.856Z,2.03
2019-03-05T00:32:42.602Z,2.07
2019-03-05T00:35:26.944Z,1.90
2019-03-05T00:38:01.386Z,1.63
2019-03-05T00:40:34.815Z,1.93
2019-03-05T00:43:11.251Z,1.80
2019-03-05T00:46:02.222Z,1.77
2019-03-05T00:48:53.163Z,1.60
2019-03-05T00:51:58.983Z,1.43
2019-03-05T00:54:50.703Z,2.07
2019-03-05T00:57:40.616Z,1.90
2019-03-05T01:00:18.913Z,1.87
2019-03-05T01:02:51.403Z,1.80
2019-03-05T01:05:27.983Z,1.90
2019-03-05T01:07:57.427Z,2.00
2019-03-05T01:10:26.214Z,2.00
2019-03-05T01:12:54.849Z,1.97
2019-03-05T01:15:23.327Z,2.40
2019-03-05T01:17:51.727Z,1.90
2019-03-05T01:20:20.231Z,1.80
2019-03-05T01:22:48.700Z,1.70
2019-03-05T01:25:27.036Z,1.90
2019-03-05T01:27:55.514Z,1.50
2019-03-05T01:30:28.846Z,1.30
2019-03-05T01:33:04.182Z,1.27
2019-03-05T01:35:40.254Z,1.17
2019-03-05T01:38:08.694Z,1.30
2019-03-05T01:40:43.570Z,1.60
2019-03-05T01:43:11.993Z,1.00
2019-03-05T01:45:40.403Z,1.10
2019-03-05T01:48:09.891Z,1.00
2019-03-05T01:50:38.346Z,0.90
2019-03-05T01:53:06.912Z,0.80
2019-03-05T01:55:35.419Z,1.00
2019-03-05T01:58:03.927Z,1.00
2019-03-05T02:00:32.416Z,0.77
2019-03-05T02:03:00.915Z,0.73
2019-03-05T02:05:29.391Z,0.50
2019-03-05T02:07:57.873Z,0.70
2019-03-05T02:10:27.244Z,0.60
2019-03-05T02:12:55.938Z,0.60
2019-03-05T02:15:24.407Z,0.40
2019-03-05T02:17:53.138Z,0.50
2019-03-05T02:20:22.711Z,0.97
2019-03-05T02:23:19.630Z,0.87
2019-03-05T02:26:13.350Z,0.40
2019-03-05T02:28:47.736Z,0.50
2019-03-05T02:31:41.759Z,0.70
2019-03-05T02:34:28.138Z,0.80
2019-03-05T02:37:14.439Z,0.50
2019-03-05T02:39:55.451Z,0.40
2019-03-05T02:42:43.078Z,0.40
2019-03-05T02:45:46.294Z,0.67
2019-03-05T02:48:33.788Z,0.40
2019-03-05T02:51:09.144Z,0.50
2019-03-05T02:53:42.110Z,0.57
2019-03-05T02:56:25.839Z,0.50
2019-03-05T02:58:53.608Z,0.67
2019-03-05T03:01:33.536Z,0.60
2019-03-05T03:04:06.824Z,0.77
2019-03-05T03:06:35.955Z,0.50
2019-03-05T03:09:26.400Z,0.70
2019-03-05T03:11:54.990Z,0.60
2019-03-05T03:14:23.409Z,0.60
2019-03-05T03:16:51.969Z,0.83
2019-03-05T03:19:20.459Z,0.60
2019-03-05T03:21:48.963Z,0.87
2019-03-05T03:24:17.363Z,0.80
2019-03-05T03:26:45.855Z,0.60
2019-03-05T03:29:14.275Z,0.70
2019-03-05T03:31:42.684Z,0.70
2019-03-05T03:34:11.527Z,0.80
2019-03-05T03:36:41.071Z,0.80
2019-03-05T03:39:09.531Z,1.10
2019-03-05T03:41:38.036Z,0.70
2019-03-05T03:44:07.415Z,0.60
2019-03-05T03:46:35.900Z,0.63
2019-03-05T03:49:04.762Z,0.80
2019-03-05T03:51:33.177Z,1.10
2019-03-05T03:54:01.584Z,1.13
2019-03-05T03:56:30.087Z,0.83
2019-03-05T03:58:58.574Z,0.80
2019-03-05T04:01:27.060Z,1.17
2019-03-05T04:03:55.580Z,1.00
2019-03-05T04:06:25.039Z,0.60
2019-03-05T04:08:53.528Z,0.53
2019-03-05T04:11:22.020Z,0.60
2019-03-05T04:13:50.427Z,0.70
2019-03-05T04:16:18.828Z,0.70
2019-03-05T04:18:47.324Z,0.80
2019-03-05T04:21:19.870Z,0.87
2019-03-05T04:23:47.027Z,0.70
2019-03-05T04:26:15.529Z,0.70
2019-03-05T04:28:43.940Z,1.10
2019-03-05T04:31:12.339Z,2.50
2019-03-05T04:33:40.751Z,1.10
2019-03-05T04:36:09.233Z,0.87
2019-03-05T04:38:37.703Z,1.23
2019-03-05T04:41:06.214Z,0.80
2019-03-05T04:43:34.668Z,0.90
2019-03-05T04:46:21.328Z,0.70
2019-03-05T04:49:10.400Z,0.83
2019-03-05T04:51:45.362Z,0.93
2019-03-05T04:54:13.766Z,0.50
2019-03-05T04:56:42.273Z,0.80
2019-03-05T04:59:10.693Z,0.97
2019-03-05T05:01:39.419Z,0.90
2019-03-05T05:04:07.907Z,0.60
2019-03-05T05:06:36.341Z,0.70
2019-03-05T05:09:05.864Z,1.03
2019-03-05T05:11:34.346Z,0.80
2019-03-05T05:14:02.855Z,0.90
2019-03-05T05:16:31.439Z,0.70
2019-03-05T05:18:59.984Z,0.70
2019-03-05T05:21:28.502Z,0.70
2019-03-05T05:23:57.048Z,1.13
2019-03-05T05:26:25.499Z,0.70
2019-03-05T05:28:54.263Z,1.00
2019-03-05T05:31:22.747Z,1.03
2019-03-05T05:33:51.227Z,0.83
2019-03-05T05:36:19.650Z,0.93
2019-03-05T05:38:48.064Z,0.70
2019-03-05T05:41:16.470Z,0.80
2019-03-05T05:43:44.976Z,0.87
2019-03-05T05:46:13.442Z,0.90
2019-03-05T05:48:41.842Z,1.23
2019-03-05T05:51:10.712Z,1.10
2019-03-05T05:53:39.194Z,0.80
2019-03-05T05:56:07.674Z,0.90
2019-03-05T05:58:36.099Z,0.80
2019-03-05T06:01:08.964Z,0.70
2019-03-05T06:03:37.999Z,0.50
2019-03-05T06:06:07.545Z,0.67
2019-03-05T06:08:36.039Z,0.73
2019-03-05T06:11:04.539Z,0.90
2019-03-05T06:13:33.351Z,0.90
2019-03-05T06:16:02.013Z,0.80
2019-03-05T06:18:30.853Z,0.70
2019-03-05T06:20:59.337Z,0.70
2019-03-05T06:23:28.047Z,0.60
2019-03-05T06:25:56.548Z,0.80
2019-03-05T06:28:25.042Z,0.70
2019-03-05T06:30:53.539Z,0.90
2019-03-05T06:33:22.231Z,0.70
2019-03-05T06:35:50.770Z,0.67
2019-03-05T06:38:19.249Z,0.90
2019-03-05T06:40:48.632Z,0.83
2019-03-05T06:43:17.076Z,0.93
2019-03-05T06:45:45.586Z,0.80
2019-03-05T06:48:14.096Z,0.60
2019-03-05T06:50:42.575Z,0.77
2019-03-05T06:53:11.368Z,0.80
2019-03-05T06:55:39.870Z,0.90
2019-03-05T06:58:08.304Z,0.93
2019-03-05T07:00:38.415Z,1.20
2019-03-05T07:03:07.176Z,1.00
2019-03-05T07:05:53.674Z,0.83
2019-03-05T07:08:22.170Z,0.80
2019-03-05T07:10:57.071Z,1.00
2019-03-05T07:13:25.360Z,0.80
2019-03-05T07:16:14.417Z,1.40
2019-03-05T07:18:50.516Z,1.10
2019-03-05T07:21:23.863Z,1.10
2019-03-05T07:24:26.865Z,0.70
2019-03-05T07:26:55.339Z,0.87
2019-03-05T07:29:23.827Z,1.00
2019-03-05T07:31:53.297Z,1.00
2019-03-05T07:34:25.443Z,1.03
2019-03-05T07:36:53.923Z,0.90
2019-03-05T07:39:22.863Z,1.10
2019-03-05T07:41:51.435Z,0.80
2019-03-05T07:44:20.279Z,1.20
2019-03-05T07:46:49.326Z,1.23
2019-03-05T07:49:17.823Z,0.90
2019-03-05T07:51:46.738Z,1.07
2019-03-05T07:54:15.378Z,1.37
2019-03-05T07:56:43.887Z,1.37
2019-03-05T07:59:12.384Z,1.27
2019-03-05T08:01:40.783Z,1.27
2019-03-05T08:04:09.254Z,0.80
2019-03-05T08:06:38.806Z,1.20
2019-03-05T08:09:29.322Z,1.23
2019-03-05T08:12:03.132Z,1.00
2019-03-05T08:14:35.888Z,1.00
2019-03-05T08:17:04.492Z,1.23
2019-03-05T08:19:33.006Z,1.00
2019-03-05T08:22:01.484Z,1.43
2019-03-05T08:24:30.160Z,1.10
2019-03-05T08:26:58.639Z,0.67
2019-03-05T08:29:27.048Z,0.90
2019-03-05T08:31:55.461Z,1.10
2019-03-05T08:34:23.948Z,0.73
2019-03-05T08:36:52.423Z,1.17
2019-03-05T08:39:20.835Z,1.07
2019-03-05T08:41:49.331Z,0.60
2019-03-05T08:44:17.797Z,1.83
2019-03-05T08:46:46.289Z,0.70
2019-03-05T08:49:14.835Z,1.03
2019-03-05T08:51:43.236Z,1.00
2019-03-05T08:54:11.711Z,0.93
2019-03-05T08:56:40.443Z,1.00
2019-03-05T08:59:08.911Z,0.90
2019-03-05T09:01:37.483Z,0.70
2019-03-05T09:04:05.966Z,1.57
2019-03-05T09:06:34.375Z,0.67
2019-03-05T09:09:03.978Z,0.60
2019-03-05T09:11:34.074Z,0.77
2019-03-05T09:14:02.752Z,1.23
2019-03-05T09:16:31.552Z,0.70
2019-03-05T09:19:00.030Z,0.70
2019-03-05T09:21:28.435Z,0.60
2019-03-05T09:23:57.180Z,1.03
2019-03-05T09:26:26.160Z,0.80
2019-03-05T09:28:54.564Z,0.80
2019-03-05T09:31:23.057Z,0.83
2019-03-05T09:33:51.715Z,0.93
2019-03-05T09:36:20.188Z,0.67
2019-03-05T09:38:48.615Z,0.70
2019-03-05T09:41:17.099Z,1.33
2019-03-05T09:43:45.573Z,0.73
2019-03-05T09:46:14.287Z,0.70
2019-03-05T09:48:42.675Z,0.70
2019-03-05T09:51:11.092Z,1.00
2019-03-05T09:53:39.707Z,0.90
2019-03-05T09:56:08.379Z,0.67
2019-03-05T09:58:36.988Z,0.93
2019-03-05T10:01:05.487Z,0.70
2019-03-05T10:03:33.973Z,0.87
2019-03-05T10:06:02.535Z,2.70
2019-03-05T10:08:32.668Z,0.60
2019-03-05T10:11:02.468Z,0.80
2019-03-05T10:13:31.145Z,1.00
2019-03-05T10:15:59.747Z,0.60
2019-03-05T10:18:28.176Z,0.67
2019-03-05T10:20:56.756Z,0.50
2019-03-05T10:23:25.253Z,0.50
2019-03-05T10:25:53.832Z,0.60
2019-03-05T10:28:22.390Z,0.50
2019-03-05T10:30:50.894Z,0.67
2019-03-05T10:33:19.822Z,0.77
2019-03-05T10:35:48.654Z,0.80
2019-03-05T10:38:17.136Z,0.73
2019-03-05T10:40:45.643Z,1.00
2019-03-05T10:43:14.463Z,0.70
2019-03-05T10:45:44.699Z,0.70
2019-03-05T10:48:14.278Z,0.50
2019-03-05T10:50:42.891Z,0.53
2019-03-05T10:53:11.555Z,0.50
2019-03-05T10:55:40.326Z,0.80
2019-03-05T10:58:09.259Z,0.63
2019-03-05T11:00:39.471Z,0.40
2019-03-05T11:03:08.307Z,0.53
2019-03-05T11:05:37.651Z,0.70
2019-03-05T11:08:06.466Z,0.87
2019-03-05T11:10:35.267Z,0.70
2019-03-05T11:13:04.064Z,0.60
2019-03-05T11:15:32.782Z,0.63
2019-03-05T11:18:01.384Z,0.53
2019-03-05T11:20:29.970Z,0.70
2019-03-05T11:22:59.390Z,0.60
2019-03-05T11:25:27.964Z,0.50
2019-03-05T11:27:56.458Z,0.50
2019-03-05T11:30:35.655Z,0.50
2019-03-05T11:32:56.080Z,1.17
2019-03-05T11:35:25.412Z,0.47
2019-03-05T11:37:53.936Z,0.50
2019-03-05T11:40:22.468Z,0.50
2019-03-05T11:42:51.179Z,0.60
2019-03-05T11:45:21.031Z,0.90
2019-03-05T11:47:49.733Z,0.40
2019-03-05T11:50:19.277Z,0.47
2019-03-05T11:52:47.871Z,0.63
2019-03-05T11:55:16.943Z,0.50
2019-03-05T11:57:47.793Z,0.70
2019-03-05T12:00:19.059Z,0.70
2019-03-05T12:02:47.851Z,1.30
2019-03-05T12:05:16.366Z,0.70
2019-03-05T12:07:46.124Z,0.60
2019-03-05T12:10:15.183Z,0.50
2019-03-05T12:12:43.675Z,0.60
2019-03-05T12:15:13.876Z,0.70
2019-03-05T12:17:42.375Z,0.40
2019-03-05T12:20:11.363Z,0.70
2019-03-05T12:22:39.912Z,0.60
2019-03-05T12:25:09.227Z,0.50
2019-03-05T12:27:37.754Z,0.50
2019-03-05T12:30:06.708Z,0.37
2019-03-05T12:32:36.470Z,0.47
2019-03-05T12:35:05.136Z,0.70
2019-03-05T12:37:33.572Z,0.70
2019-03-05T12:40:02.076Z,0.43
2019-03-05T12:42:30.752Z,0.57
2019-03-05T12:44:59.176Z,0.67
2019-03-05T12:47:27.673Z,0.67
2019-03-05T12:49:56.171Z,0.73
2019-03-05T12:52:24.700Z,0.60
2019-03-05T12:54:53.119Z,0.70
2019-03-05T12:57:21.736Z,0.73
2019-03-05T12:59:50.227Z,0.50
2019-03-05T13:02:18.721Z,4.50
2019-03-05T13:04:47.219Z,0.50
2019-03-05T13:07:17.896Z,0.60
2019-03-05T13:09:45.892Z,0.40
2019-03-05T13:12:14.391Z,0.57
2019-03-05T13:14:43.819Z,0.60
2019-03-05T13:17:12.674Z,0.50
2019-03-05T13:19:44.404Z,0.73
2019-03-05T13:22:11.311Z,0.73
2019-03-05T13:24:39.803Z,1.53
2019-03-05T13:27:08.253Z,0.50
2019-03-05T13:29:36.974Z,0.60
2019-03-05T13:32:05.466Z,2.10
2019-03-05T13:34:35.040Z,0.57
2019-03-05T13:37:03.532Z,0.40
2019-03-05T13:39:32.050Z,0.50
2019-03-05T13:42:00.604Z,0.50
2019-03-05T13:44:32.093Z,0.47
2019-03-05T13:47:00.914Z,0.63
2019-03-05T13:49:40.687Z,0.80
2019-03-05T13:52:18.942Z,0.60
2019-03-05T13:55:03.380Z,0.50
2019-03-05T13:57:38.692Z,0.60
2019-03-05T14:00:07.732Z,0.80
2019-03-05T14:02:55.948Z,0.63
2019-03-05T14:05:58.932Z,0.50
2019-03-05T14:08:37.319Z,0.60
2019-03-05T14:11:05.835Z,0.80
2019-03-05T14:13:34.392Z,0.60
2019-03-05T14:16:04.328Z,0.70
2019-03-05T14:18:32.840Z,0.70
2019-03-05T14:21:01.315Z,0.77
2019-03-05T14:23:29.765Z,0.60
2019-03-05T14:25:58.544Z,0.50
2019-03-05T14:28:27.030Z,0.83
2019-03-05T14:30:55.827Z,0.77
2019-03-05T14:33:24.652Z,0.60
2019-03-05T14:35:53.618Z,0.77
2019-03-05T14:38:22.142Z,0.70
2019-03-05T14:40:50.681Z,0.73
2019-03-05T14:43:20.703Z,0.50
2019-03-05T14:45:49.231Z,0.60
2019-03-05T14:48:17.733Z,0.60
2019-03-05T14:50:46.285Z,0.60
2019-03-05T14:53:14.811Z,0.97
2019-03-05T14:55:43.713Z,0.73
2019-03-05T14:58:12.567Z,0.90
2019-03-05T15:00:41.587Z,1.20
2019-03-05T15:03:09.999Z,1.23
2019-03-05T15:05:38.794Z,0.90
2019-03-05T15:08:07.747Z,0.57
2019-03-05T15:10:36.563Z,1.43
2019-03-05T15:13:15.381Z,1.37
2019-03-05T15:15:35.331Z,1.03
2019-03-05T15:18:03.929Z,1.13
2019-03-05T15:20:32.507Z,1.83
2019-03-05T15:23:01.357Z,5.63
2019-03-05T15:25:29.849Z,0.60
2019-03-05T15:27:58.401Z,0.60
2019-03-05T15:30:28.926Z,0.70
2019-03-05T15:32:58.136Z,1.23
2019-03-05T15:35:27.755Z,0.70
2019-03-05T15:37:56.410Z,1.10
2019-03-05T15:40:24.915Z,0.90
2019-03-05T15:42:53.477Z,1.70
2019-03-05T15:45:22.335Z,1.70
2019-03-05T15:47:50.987Z,2.17
2019-03-05T15:50:20.903Z,2.10
2019-03-05T15:52:49.458Z,1.77
2019-03-05T15:55:17.970Z,1.53
2019-03-05T15:57:48.084Z,1.20
2019-03-05T16:00:17.788Z,1.20
2019-03-05T16:02:46.374Z,2.10
2019-03-05T16:05:16.722Z,1.53
2019-03-05T16:07:48.095Z,1.77
2019-03-05T16:10:17.107Z,1.30
2019-03-05T16:12:45.672Z,1.60
2019-03-05T16:15:14.158Z,2.90
2019-03-05T16:17:42.816Z,2.53
2019-03-05T16:20:11.767Z,1.70
2019-03-05T16:22:40.170Z,1.43
2019-03-05T16:25:09.931Z,1.50
2019-03-05T16:27:40.453Z,1.50
2019-03-05T16:30:15.186Z,1.40
2019-03-05T16:32:55.443Z,1.30
2019-03-05T16:35:36.719Z,1.47
2019-03-05T16:38:28.743Z,1.77
2019-03-05T16:41:13.303Z,1.63
2019-03-05T16:44:13.206Z,2.30
2019-03-05T16:46:56.959Z,1.70
2019-03-05T16:49:52.979Z,2.20
2019-03-05T16:52:32.294Z,2.07
2019-03-05T16:55:20.561Z,1.50
2019-03-05T16:58:17.922Z,1.80
2019-03-05T17:00:55.408Z,2.90
2019-03-05T17:03:41.848Z,2.00
2019-03-05T17:06:41.801Z,2.23
2019-03-05T17:09:28.628Z,2.17
2019-03-05T17:11:57.501Z,1.73
2019-03-05T17:14:26.752Z,2.00
2019-03-05T17:16:55.351Z,2.10
2019-03-05T17:19:25.028Z,1.80
2019-03-05T17:21:53.515Z,1.70
2019-03-05T17:24:22.210Z,1.70
2019-03-05T17:26:50.883Z,2.00
2019-03-05T17:29:19.442Z,1.90
2019-03-05T17:31:47.872Z,1.50
2019-03-05T17:34:16.291Z,2.00
2019-03-05T17:36:45.063Z,1.87
2019-03-05T17:39:18.586Z,1.97
2019-03-05T17:41:47.271Z,2.30
2019-03-05T17:44:16.915Z,2.60
2019-03-05T17:46:45.873Z,2.43
2019-03-05T17:49:14.659Z,2.50
2019-03-05T17:51:43.555Z,2.40
2019-03-05T17:54:12.062Z,2.17
2019-03-05T17:56:40.854Z,2.00
2019-03-05T17:59:09.690Z,2.97
2019-03-05T18:01:38.455Z,2.50
2019-03-05T18:04:06.938Z,2.10
2019-03-05T18:06:35.450Z,2.37
2019-03-05T18:09:05.006Z,1.87
2019-03-05T18:11:35.412Z,3.00
2019-03-05T18:14:03.905Z,2.70
2019-03-05T18:16:32.790Z,3.27
2019-03-05T18:19:01.286Z,3.00
2019-03-05T18:21:30.028Z,2.70
2019-03-05T18:23:58.693Z,2.70
2019-03-05T18:26:27.211Z,2.20
2019-03-05T18:28:55.995Z,4.53
2019-03-05T18:31:24.608Z,1.73
2019-03-05T18:33:53.039Z,1.33
2019-03-05T18:36:21.711Z,1.30
2019-03-05T18:38:50.203Z,2.00
2019-03-05T18:41:18.703Z,1.70
2019-03-05T18:43:47.161Z,1.70
2019-03-05T18:46:16.849Z,1.80
2019-03-05T18:48:45.621Z,1.40
2019-03-05T18:51:14.117Z,1.83
2019-03-05T18:53:42.679Z,1.60
2019-03-05T18:56:11.799Z,2.33
2019-03-05T18:58:40.303Z,3.10
2019-03-05T19:01:09.725Z,2.20
2019-03-05T19:03:38.350Z,2.63
2019-03-05T19:06:06.823Z,3.57
2019-03-05T19:08:35.321Z,2.10
2019-03-05T19:11:04.022Z,8.33
2019-03-05T19:13:32.795Z,2.80
2019-03-05T19:16:01.617Z,2.30
2019-03-05T19:18:30.148Z,2.30
2019-03-05T19:20:58.632Z,2.53
2019-03-05T19:23:27.152Z,2.30
2019-03-05T19:25:57.385Z,2.40
2019-03-05T19:28:25.980Z,2.47
2019-03-05T19:30:54.487Z,2.50
2019-03-05T19:33:23.269Z,2.83
2019-03-05T19:35:51.764Z,2.17
2019-03-05T19:38:20.561Z,2.03
2019-03-05T19:40:49.123Z,2.60
2019-03-05T19:43:17.631Z,1.60
2019-03-05T19:45:46.154Z,1.80
2019-03-05T19:48:14.749Z,2.40
2019-03-05T19:50:43.767Z,1.77
2019-03-05T19:53:12.276Z,2.27
2019-03-05T19:55:40.908Z,1.87
2019-03-05T19:58:10.242Z,1.90
2019-03-05T20:00:45.130Z,2.30
2019-03-05T20:03:13.726Z,2.30
2019-03-05T20:05:42.263Z,1.60
2019-03-05T20:08:10.847Z,2.50
2019-03-05T20:10:39.720Z,2.33
2019-03-05T20:13:08.456Z,2.20
2019-03-05T20:15:37.091Z,2.20
2019-03-05T20:18:07.373Z,1.60
2019-03-05T20:20:36.204Z,2.20
2019-03-05T20:23:05.252Z,2.23
2019-03-05T20:25:33.886Z,2.23
2019-03-05T20:28:03.574Z,2.13
2019-03-05T20:30:32.268Z,2.60
2019-03-05T20:33:01.185Z,1.97
2019-03-05T20:35:30.106Z,1.97
2019-03-05T20:37:58.682Z,2.03
2019-03-05T20:40:27.779Z,1.80
2019-03-05T20:42:56.567Z,2.30
2019-03-05T20:45:26.696Z,2.90
2019-03-05T20:47:55.605Z,2.50
2019-03-05T20:50:24.701Z,2.33
2019-03-05T20:52:53.628Z,2.80
2019-03-05T20:55:23.055Z,2.60
2019-03-05T20:57:54.106Z,3.10
2019-03-05T21:00:26.116Z,6.23
2019-03-05T21:02:55.971Z,5.90
2019-03-05T21:05:25.015Z,4.93
2019-03-05T21:07:53.684Z,5.20
2019-03-05T21:10:22.490Z,5.27
2019-03-05T21:12:51.282Z,4.27
2019-03-05T21:15:19.917Z,3.73
2019-03-05T21:17:48.442Z,3.90
2019-03-05T21:20:16.922Z,4.10
2019-03-05T21:22:45.440Z,4.63
2019-03-05T21:25:14.848Z,5.40
2019-03-05T21:27:43.979Z,4.63
2019-03-05T21:30:13.850Z,5.10
2019-03-05T21:32:42.444Z,4.40
2019-03-05T21:35:11.062Z,4.77
2019-03-05T21:37:39.643Z,4.40
2019-03-05T21:40:10.866Z,4.77
2019-03-05T21:42:39.367Z,4.90
2019-03-05T21:45:08.728Z,5.27
2019-03-05T21:47:37.419Z,4.50
2019-03-05T21:50:06.603Z,4.77
2019-03-05T21:52:35.870Z,5.60
2019-03-05T21:55:04.912Z,5.27
2019-03-05T21:57:34.656Z,5.40
2019-03-05T22:00:03.300Z,6.30
2019-03-05T22:02:33.747Z,6.13
2019-03-05T22:05:02.239Z,6.10
2019-03-05T22:07:31.105Z,6.27
2019-03-05T22:09:59.575Z,6.67
2019-03-05T22:12:28.135Z,30.20
2019-03-05T22:14:56.639Z,17.63
2019-03-05T22:17:25.227Z,8.83
2019-03-05T22:19:53.771Z,7.70
2019-03-05T22:22:22.278Z,7.73
2019-03-05T22:24:50.782Z,7.30
2019-03-05T22:27:19.330Z,7.57
2019-03-05T22:29:47.996Z,7.80
2019-03-05T22:32:16.896Z,7.87
2019-03-05T22:34:45.370Z,7.83
2019-03-05T22:37:13.907Z,7.87
2019-03-05T22:39:42.466Z,7.10
2019-03-05T22:42:11.585Z,6.37
2019-03-05T22:44:40.076Z,7.63
2019-03-05T22:47:08.804Z,8.17
2019-03-05T22:49:37.298Z,7.63
2019-03-05T22:52:05.802Z,7.70
2019-03-05T22:54:34.531Z,9.07
2019-03-05T22:57:02.947Z,8.17
2019-03-05T22:59:31.816Z,8.10
2019-03-05T23:02:00.331Z,7.97
2019-03-05T23:04:30.868Z,7.80
2019-03-05T23:06:59.742Z,9.17
2019-03-05T23:09:28.411Z,9.47
2019-03-05T23:11:59.002Z,8.87
2019-03-05T23:14:27.943Z,8.60
2019-03-05T23:16:56.819Z,8.70
2019-03-05T23:19:25.818Z,8.43
2019-03-05T23:21:54.417Z,8.90
2019-03-05T23:24:23.244Z,9.60
2019-03-05T23:26:51.926Z,10.37
2019-03-05T23:29:25.688Z,9.03
2019-03-05T23:31:54.193Z,9.73
2019-03-05T23:34:22.802Z,10.00
2019-03-05T23:36:51.242Z,10.80
2019-03-05T23:39:19.747Z,10.90
2019-03-05T23:41:48.491Z,10.23
2019-03-05T23:44:16.978Z,10.80
2019-03-05T23:46:45.493Z,10.63
2019-03-05T23:49:13.987Z,10.60
2019-03-05T23:51:42.480Z,10.17
2019-03-05T23:54:11.886Z,10.63
2019-03-05T23:56:40.316Z,10.10
2019-03-05T23:59:08.739Z,10.40
